Weather observations for the past three days for
Mountain View, Moffett Field
| Date | Time (pdt) | Wind (kph) | Vis. (km) | Weather | Sky Cond. | Temperature (ºC) | Relative Humidity | Wind Chill (°C) | Heat Index (°C) | Pressure | Precipitation (cm) | ||||||
|---|---|---|---|---|---|---|---|---|---|---|---|---|---|---|---|---|---|
| Air | Dwpt | 6 hour | altimeter (cm) | sea level (mb) | 1 hr | 3 hr | 6 hr | ||||||||||
| Max. | Min. | ||||||||||||||||
| 07 | 04:55 | N 11 | 12.87 | Overcast | OVC008 | 14 | 12 | 88% | 76.43 | 0.0 | |||||||
| 07 | 04:35 | NE 9 | 14.48 | Overcast | OVC009 | 14 | 12 | 88% | 76.45 | 0.0 | |||||||
| 07 | 04:15 | Calm | 16.09 | Overcast | OVC010 | 14 | 12 | 88% | 76.45 | 0.0 | |||||||
| 07 | 03:55 | Calm | 14.48 | Overcast | OVC010 | 14 | 12 | 88% | 76.45 | 0.0 | |||||||
| 07 | 03:35 | Calm | 14.48 | Overcast | OVC010 | 14 | 12 | 88% | 76.45 | 0.0 | |||||||
| 07 | 03:15 | Calm | 14.48 | Overcast | OVC009 | 14 | 12 | 88% | 76.45 | 0.0 | |||||||
| 07 | 02:55 | N 7 | 14.48 | Overcast | OVC009 | 14 | 12 | 88% | 76.43 | 0.0 | |||||||
| 07 | 02:35 | N 9 | 14.48 | Overcast | OVC009 | 14 | 12 | 88% | 76.45 | 0.0 | |||||||
| 07 | 02:15 | NW 9 | 14.48 | Overcast | OVC011 | 14 | 12 | 88% | 76.45 | 0.0 | |||||||
| 07 | 01:55 | N 6 | 14.48 | Overcast | OVC010 | 14 | 12 | 88% | 76.45 | 0.0 | |||||||
| 07 | 01:35 | N 11 | 16.09 | Overcast | OVC010 | 14 | 12 | 88% | 76.48 | 0.0 | |||||||
| 07 | 01:15 | NE 13 | 14.48 | Overcast | OVC010 | 14 | 12 | 88% | 76.48 | 0.0 | |||||||
| 07 | 00:55 | NE 13 | 14.48 | Overcast | OVC009 | 14 | 12 | 88% | 76.48 | 0.0 | |||||||
| 07 | 00:35 | N 13 | 14.48 | Overcast | OVC010 | 14 | 12 | 88% | 76.48 | 0.0 | |||||||
| 07 | 00:15 | N 11 | 14.48 | Overcast | OVC010 | 14 | 12 | 88% | 76.48 | 0.0 | |||||||
| 06 | 23:55 | N 13 | 14.48 | Overcast | OVC010 | 14 | 12 | 88% | 76.48 | 0.0 | |||||||
| 06 | 23:35 | N 15 | 14.48 | Overcast | OVC010 | 14 | 12 | 88% | 76.48 | 0.0 | |||||||
| 06 | 23:15 | NE 17 | 14.48 | Overcast | OVC010 | 14 | 12 | 88% | 76.48 | 0.0 | |||||||
| 06 | 22:55 | N 11 | 14.48 | Overcast | OVC011 | 14 | 13 | 94% | 76.48 | 0.0 | |||||||
| 06 | 22:35 | NE 11 | 14.48 | Overcast | OVC010 | 14 | 12 | 88% | 76.48 | 0.0 | |||||||
| 06 | 22:15 | NE 6 | 14.48 | Overcast | OVC011 | 14 | 12 | 88% | 76.5 | 0.0 | |||||||
| 06 | 21:55 | N 9 | 14.48 | Partly Cloudy | SCT011 | 14 | 12 | 88% | 76.48 | 0.0 | |||||||
| 06 | 21:35 | N 13 | 14.48 | A Few Clouds | FEW011 | 14 | 12 | 88% | 76.48 | 0.0 | |||||||
| 06 | 21:15 | N 13 G 24 | 16.09 | Fair | CLR | 15 | 12 | 82% | 76.48 | 0.0 | |||||||
| 06 | 20:55 | N 20 | 14.48 | Fair | CLR | 15 | 12 | 82% | 76.45 | 0.0 | |||||||
| 06 | 20:35 | N 19 G 30 | 14.48 | Fair | CLR | 15 | 13 | 88% | 76.43 | 0.0 | |||||||
| 06 | 20:15 | N 24 | 12.87 | Fair | CLR | 16 | 13 | 83% | 76.4 | 0.0 | |||||||
| 06 | 19:55 | N 26 | 12.87 | Fair | CLR | 16 | 13 | 83% | 76.38 | 0.0 | |||||||
| 06 | 19:35 | N 20 G 31 | 14.48 | Fair | CLR | 17 | 13 | 77% | 76.35 | 0.0 | |||||||
| 06 | 19:15 | N 24 | 12.87 | Fair | CLR | 17 | 14 | 83% | 76.35 | 0.0 | |||||||
| 06 | 18:55 | N 22 G 33 | 14.48 | Fair | CLR | 18 | 14 | 78% | 76.35 | 0.0 | |||||||
| 06 | 18:35 | N 30 | 14.48 | Fair | CLR | 18 | 13 | 73% | 76.35 | 0.0 | |||||||
| 06 | 18:15 | N 28 | 14.48 | Fair | CLR | 18 | 14 | 78% | 76.35 | 0.0 | |||||||
| 06 | 17:55 | N 24 | 14.48 | Fair | CLR | 19 | 14 | 73% | 76.35 | 0.0 | |||||||
| 06 | 17:35 | N 26 | 14.48 | Fair | CLR | 19 | 14 | 73% | 76.35 | 0.0 | |||||||
| 06 | 17:15 | N 22 | 14.48 | Fair | CLR | 20 | 14 | 69% | 76.33 | 0.0 | |||||||
| 06 | 16:55 | N 22 G 31 | 16.09 | Fair | CLR | 21 | 13 | 60% | 76.33 | 0.0 | |||||||
| 06 | 16:35 | N 22 G 33 | 14.48 | Fair | CLR | 21 | 13 | 60% | 76.35 | 0.0 | |||||||
| 06 | 16:15 | N 24 | 14.48 | Fair | CLR | 21 | 13 | 60% | 76.35 | 0.0 | |||||||
| 06 | 15:55 | N 24 | 14.48 | Fair | CLR | 21 | 13 | 60% | 76.38 | 0.0 | |||||||
| 06 | 15:35 | N 30 | 14.48 | Fair | CLR | 21 | 13 | 60% | 76.38 | 0.0 | |||||||
| 06 | 15:15 | N 22 | 14.48 | Fair | CLR | 21 | 13 | 60% | 76.4 | 0.0 | |||||||
| 06 | 14:55 | N 19 | 14.48 | Fair | CLR | 21 | 13 | 60% | 76.4 | 0.0 | |||||||
| 06 | 14:35 | N 20 | 14.48 | Fair | CLR | 21 | 12 | 57% | 76.43 | 0.0 | |||||||
| 06 | 14:15 | N 17 | 14.48 | Fair | CLR | 21 | 12 | 57% | 76.45 | 0.0 | |||||||
| 06 | 13:55 | N 17 | 14.48 | Fair | CLR | 20 | 12 | 60% | 76.45 | 0.0 | |||||||
| 06 | 13:35 | N 15 | 14.48 | Fair | CLR | 20 | 12 | 60% | 76.48 | 0.0 | |||||||
| 06 | 13:15 | N 11 G 22 | 14.48 | Fair | CLR | 20 | 12 | 60% | 76.5 | 0.0 | |||||||
| 06 | 12:55 | NW 7 | 14.48 | Fair | CLR | 19 | 11 | 60% | 76.5 | 0.0 | |||||||
| 06 | 12:35 | Vrbl 7 | 14.48 | Fair | CLR | 19 | 11 | 60% | 76.53 | 0.0 | |||||||
| 06 | 12:15 | NW 11 | 14.48 | Fair | CLR | 18 | 11 | 64% | 76.53 | 0.0 | |||||||
| 06 | 11:55 | N 13 | 14.48 | Fair | CLR | 18 | 11 | 64% | 76.56 | 0.0 | |||||||
| 06 | 11:35 | N 13 | 16.09 | Fair | CLR | 18 | 11 | 64% | 76.56 | 0.0 | |||||||
| 06 | 11:15 | N 7 G 19 | 16.09 | A Few Clouds | FEW023 | 17 | 11 | 68% | 76.56 | 0.0 | |||||||
| 06 | 10:55 | N 13 | 14.48 | Partly Cloudy | SCT022 | 17 | 11 | 68% | 76.56 | 0.0 | |||||||
| 06 | 10:35 | Vrbl 9 | 14.48 | Overcast | OVC022 | 16 | 11 | 72% | 76.56 | 0.0 | |||||||
| 06 | 10:15 | Vrbl 11 | 14.48 | Overcast | OVC022 | 16 | 11 | 72% | 76.58 | 0.0 | |||||||
| 06 | 09:55 | N 11 | 16.09 | Overcast | OVC023 | 16 | 11 | 72% | 76.58 | 0.0 | |||||||
| 06 | 09:35 | N 11 | 14.48 | Overcast | OVC023 | 16 | 11 | 72% | 76.58 | 0.0 | |||||||
| 06 | 09:15 | N 11 | 14.48 | Overcast | OVC023 | 16 | 11 | 72% | 76.58 | 0.0 | |||||||
| 06 | 08:55 | NW 7 | 14.48 | Overcast | OVC021 | 15 | 11 | 77% | 76.58 | 0.0 | |||||||
| 06 | 08:35 | Calm | 14.48 | Overcast | OVC019 | 15 | 11 | 77% | 76.58 | 0.0 | |||||||
| 06 | 08:15 | Calm | 14.48 | Overcast | OVC019 | 15 | 11 | 77% | 76.58 | 0.0 | |||||||
| 06 | 07:55 | Calm | 14.48 | Overcast | OVC019 | 14 | 11 | 82% | 76.58 | 0.0 | |||||||
| 06 | 07:35 | Calm | 14.48 | Overcast | OVC017 | 14 | 10 | 77% | 76.56 | 0.0 | |||||||
| 06 | 07:15 | Calm | 16.09 | Overcast | OVC016 | 14 | 11 | 82% | 76.56 | 0.0 | |||||||
| 06 | 06:55 | W 6 | 14.48 | Overcast | OVC016 | 14 | 10 | 77% | 76.53 | 0.0 | |||||||
| 06 | 06:35 | W 6 | 16.09 | Overcast | OVC018 | 14 | 11 | 82% | 76.5 | 0.0 | |||||||
| 06 | 06:15 | W 7 | 16.09 | Overcast | OVC018 | 14 | 11 | 82% | 76.5 | 0.0 | |||||||
| 06 | 05:55 | W 6 | 16.09 | Overcast | OVC017 | 14 | 10 | 77% | 76.48 | 0.0 | |||||||
| 06 | 05:35 | Calm | 16.09 | Overcast | OVC017 | 14 | 10 | 77% | 76.48 | 0.0 | |||||||
| 06 | 05:15 | Calm | 16.09 | Overcast | BKN016 BKN021 OVC029 | 14 | 11 | 82% | 76.48 | 0.0 | |||||||
| 06 | 04:55 | Calm | 16.09 | Overcast | SCT016 BKN026 OVC031 | 14 | 11 | 82% | 76.48 | 0.0 | |||||||
| 06 | 04:35 | Calm | 16.09 | Overcast | SCT025 OVC033 | 14 | 10 | 77% | 76.45 | 0.0 | |||||||
| 06 | 04:15 | Calm | 16.09 | Overcast | BKN025 OVC032 | 14 | 10 | 77% | 76.45 | 0.0 | |||||||
| 06 | 03:55 | Calm | 16.09 | Overcast | BKN025 OVC034 | 13 | 10 | 82% | 76.45 | 0.0 | |||||||
| 06 | 03:35 | Calm | 16.09 | Overcast | FEW026 OVC035 | 14 | 10 | 77% | 76.45 | 0.0 | |||||||
| 06 | 03:15 | Calm | 16.09 | Overcast | SCT026 OVC035 | 14 | 10 | 77% | 76.45 | 0.0 | |||||||
| 06 | 02:55 | NW 6 | 16.09 | Overcast | SCT026 OVC036 | 14 | 11 | 82% | 76.43 | 0.0 | |||||||
| 06 | 02:35 | Calm | 16.09 | Overcast | FEW026 OVC035 | 14 | 11 | 82% | 76.45 | 0.0 | |||||||
| 06 | 02:15 | N 7 | 16.09 | Overcast | OVC035 | 14 | 11 | 82% | 76.45 | 0.0 | |||||||
| 06 | 01:55 | NW 6 | 16.09 | Overcast | SCT029 OVC035 | 14 | 11 | 82% | 76.43 | 0.0 | |||||||
| 06 | 01:35 | NW 7 | 16.09 | Overcast | OVC029 | 14 | 11 | 82% | 76.45 | 0.0 | |||||||
| 06 | 01:15 | NW 7 | 16.09 | Overcast | OVC030 | 14 | 11 | 82% | 76.45 | 0.0 | |||||||
| 06 | 00:55 | NW 7 | 16.09 | Overcast | SCT030 OVC036 | 14 | 11 | 82% | 76.43 | 0.0 | |||||||
| 06 | 00:35 | NW 7 | 16.09 | Overcast | OVC036 | 14 | 11 | 82% | 76.43 | 0.0 | |||||||
| 06 | 00:15 | N 9 | 16.09 | Overcast | OVC033 | 14 | 11 | 82% | 76.43 | 0.0 | |||||||
| 05 | 23:55 | N 7 | 16.09 | Overcast | OVC034 | 14 | 11 | 82% | 76.4 | 0.0 | |||||||
| 05 | 23:35 | NW 9 | 16.09 | Overcast | OVC036 | 15 | 11 | 77% | 76.4 | 0.0 | |||||||
| 05 | 23:15 | N 13 | 16.09 | Overcast | OVC036 | 15 | 11 | 77% | 76.38 | 0.0 | |||||||
| 05 | 22:55 | N 11 | 14.48 | Overcast | OVC037 | 15 | 11 | 77% | 76.38 | 0.0 | |||||||
| 05 | 22:35 | N 11 | 16.09 | Overcast | SCT031 OVC038 | 15 | 10 | 72% | 76.38 | 0.0 | |||||||
| 05 | 22:15 | N 11 | 16.09 | Overcast | OVC032 | 15 | 10 | 72% | 76.35 | 0.0 | |||||||
| 05 | 21:55 | NW 7 | 16.09 | Overcast | OVC032 | 15 | 10 | 72% | 76.35 | 0.0 | |||||||
| 05 | 21:35 | NW 9 | 16.09 | Overcast | OVC031 | 15 | 10 | 72% | 76.33 | 0.0 | |||||||
| 05 | 21:15 | NW 11 | 16.09 | Overcast | OVC031 | 15 | 10 | 72% | 76.33 | 0.0 | |||||||
| 05 | 20:55 | W 9 | 16.09 | Overcast | OVC030 | 16 | 10 | 68% | 76.3 | 0.0 | |||||||
| 05 | 20:35 | W 9 | 16.09 | Overcast | OVC032 | 16 | 9 | 63% | 76.28 | 0.0 | |||||||
| 05 | 20:15 | W 9 | 16.09 | Overcast | OVC032 | 16 | 9 | 63% | 76.25 | 0.0 | |||||||
| 05 | 19:55 | W 11 | 14.48 | Overcast | OVC033 | 16 | 9 | 63% | 76.25 | 0.0 | |||||||
| 05 | 19:35 | W 6 | 16.09 | Overcast | BKN030 OVC034 | 16 | 10 | 68% | 76.23 | 0.0 | |||||||
| 05 | 19:15 | W 9 | 14.48 | Overcast | OVC030 | 16 | 10 | 68% | 76.23 | 0.0 | |||||||
| 05 | 18:55 | W 13 | 14.48 | Overcast | OVC030 | 16 | 10 | 68% | 76.23 | 0.0 | |||||||
| 05 | 18:35 | W 11 | 16.09 | Overcast | OVC030 | 16 | 10 | 68% | 76.23 | 0.0 | |||||||
| 05 | 18:15 | W 17 | 14.48 | Overcast | OVC031 | 16 | 10 | 68% | 76.23 | 0.0 | |||||||
| 05 | 17:55 | Vrbl 7 | 14.48 | Overcast | OVC030 | 16 | 10 | 68% | 76.2 | 0.0 | |||||||
| 05 | 17:35 | W 13 | 14.48 | Overcast | OVC031 | 16 | 10 | 68% | 76.2 | 0.0 | |||||||
| 05 | 17:15 | W 15 | 14.48 | Overcast | OVC031 | 17 | 10 | 64% | 76.17 | 0.0 | |||||||
| 05 | 16:55 | Vrbl 9 G 19 | 16.09 | Overcast | BKN030 OVC035 | 17 | 10 | 64% | 76.17 | 0.0 | |||||||
| 05 | 16:35 | N 17 | 14.48 | Mostly Cloudy | BKN032 BKN045 | 17 | 10 | 64% | 76.17 | 0.0 | |||||||
| 05 | 16:15 | N 17 | 14.48 | Overcast | OVC032 | 17 | 10 | 64% | 76.2 | 0.0 | |||||||
| 05 | 15:55 | N 17 | 14.48 | Overcast | OVC032 | 17 | 10 | 64% | 76.17 | 0.0 | |||||||
| 05 | 15:35 | N 15 | 14.48 | Overcast | OVC032 | 17 | 10 | 64% | 76.2 | 0.0 | |||||||
| 05 | 15:15 | N 19 | 14.48 | Overcast | OVC031 | 17 | 10 | 64% | 76.2 | 0.0 | |||||||
| 05 | 14:55 | N 15 | 14.48 | Overcast | OVC031 | 16 | 10 | 68% | 76.23 | 0.0 | |||||||
| 05 | 14:35 | N 15 | 14.48 | Overcast | OVC032 | 16 | 10 | 68% | 76.23 | 0.0 | |||||||
| 05 | 14:15 | N 19 | 14.48 | Overcast | BKN033 OVC042 | 16 | 10 | 68% | 76.23 | 0.0 | |||||||
| 05 | 13:55 | N 13 | 14.48 | Overcast | BKN028 OVC034 | 16 | 10 | 68% | 76.23 | 0.0 | |||||||
| 05 | 13:35 | N 15 | 14.48 | Mostly Cloudy | BKN028 BKN034 BKN045 | 16 | 10 | 68% | 76.23 | 0.0 | |||||||
| 05 | 13:15 | W 9 G 19 | 14.48 | Overcast | BKN028 OVC037 | 16 | 10 | 68% | 76.23 | 0.0 | |||||||
| 05 | 12:55 | Calm | 14.48 | Overcast | SCT027 OVC035 | 16 | 10 | 68% | 76.25 | 0.0 | |||||||
| 05 | 12:35 | Vrbl 9 | 14.48 | Overcast | SCT024 BKN029 OVC049 | 16 | 10 | 68% | 76.25 | 0.0 | |||||||
| 05 | 12:15 | Calm | 14.48 | Mostly Cloudy | SCT022 SCT027 BKN031 | 16 | 10 | 68% | 76.25 | 0.0 | |||||||
| 05 | 11:55 | W 7 | 14.48 | Overcast | BKN022 BKN026 OVC038 | 15 | 10 | 72% | 76.25 | 0.0 | |||||||
| 05 | 11:35 | SW 9 | 14.48 | Overcast | OVC024 | 15 | 10 | 72% | 76.25 | 0.0 | |||||||
| 05 | 11:15 | Calm | 14.48 | Overcast | FEW018 BKN025 OVC030 | 15 | 10 | 72% | 76.25 | 0.0 | |||||||
| 05 | 10:55 | Calm | 11.27 | Overcast | BKN020 OVC028 | 14 | 10 | 77% | 76.25 | 0.0 | |||||||
| 05 | 10:35 | W 7 | 9.66 | Overcast with Haze | OVC020 | 14 | 10 | 77% | 76.23 | 0.0 | |||||||
| 05 | 10:15 | W 7 | 14.48 | Overcast | OVC023 | 15 | 9 | 68% | 76.23 | 0.0 | |||||||
| 05 | 09:55 | Calm | 14.48 | Overcast | OVC025 | 14 | 9 | 72% | 76.2 | 0.0 | |||||||
| 05 | 09:35 | Calm | 14.48 | Overcast | BKN028 OVC032 | 14 | 8 | 67% | 76.2 | 0.0 | |||||||
| 05 | 09:15 | Calm | 14.48 | Overcast | FEW026 BKN031 OVC039 | 14 | 8 | 67% | 76.2 | 0.0 | |||||||
| 05 | 08:55 | Calm | 14.48 | Overcast | FEW029 SCT041 OVC050 | 14 | 9 | 72% | 76.2 | 0.0 | |||||||
| 05 | 08:35 | SE 6 | 14.48 | Overcast | OVC050 | 13 | 9 | 77% | 76.2 | 0.0 | |||||||
| 05 | 08:15 | Calm | 14.48 | Overcast | OVC055 | 13 | 9 | 77% | 76.17 | 0.0 | |||||||
| 05 | 07:55 | SE 6 | 14.48 | Overcast | OVC055 | 13 | 9 | 77% | 76.17 | 0.0 | |||||||
| 05 | 07:15 | S 6 | 12.87 | Overcast | BKN044 OVC050 | 13 | 9 | 77% | 76.15 | 0.0 | |||||||
| 05 | 06:55 | Calm | 14.48 | Overcast | BKN041 OVC049 | 13 | 9 | 77% | 76.15 | 0.0 | |||||||
| 05 | 06:35 | Calm | 16.09 | Overcast | SCT039 BKN044 OVC050 | 12 | 9 | 82% | 76.15 | 0.0 | |||||||
| 05 | 06:15 | Calm | 16.09 | Overcast | FEW034 OVC050 | 12 | 9 | 82% | 76.12 | 0.0 | |||||||
| 05 | 05:55 | Calm | 16.09 | Overcast | SCT034 OVC055 | 12 | 9 | 82% | 76.12 | 0.0 | |||||||
| 05 | 05:35 | Calm | 16.09 | Overcast | FEW025 BKN032 OVC060 | 12 | 9 | 82% | 76.15 | 0.0 | |||||||
| 05 | 05:15 | Calm | 14.48 | Overcast | FEW025 BKN031 OVC065 | 12 | 9 | 82% | 76.15 | 0.0 | |||||||
| 05 | 04:55 | Calm | 14.48 | Overcast | OVC065 | 12 | 9 | 82% | 76.15 | 0.0 | |||||||
| 05 | 04:35 | Calm | 14.48 | Overcast | OVC070 | 12 | 9 | 82% | 76.15 | 0.0 | |||||||
| 05 | 04:15 | Calm | 12.87 | Overcast | FEW055 SCT060 OVC070 | 12 | 9 | 82% | 76.15 | 0.0 | |||||||
| 05 | 03:55 | Vrbl 6 | 11.27 | Light Rain | SCT055 OVC075 | 12 | 8 | 77% | 76.15 | 0.0 | |||||||
| 05 | 03:35 | Calm | 14.48 | Overcast | FEW050 BKN075 OVC085 | 12 | 8 | 77% | 76.15 | 0.0 | |||||||
| 05 | 03:15 | Calm | 16.09 | Overcast | OVC075 | 12 | 8 | 77% | 76.15 | 0.0 | |||||||
| 05 | 02:55 | Calm | 14.48 | Overcast | FEW060 OVC075 | 12 | 8 | 77% | 76.15 | 0.0 | |||||||
| 05 | 02:35 | Calm | 14.48 | Overcast | FEW032 FEW045 OVC075 | 12 | 8 | 77% | 76.17 | 0.0 | |||||||
| 05 | 02:15 | W 9 | 14.48 | Light Rain | FEW032 SCT060 OVC075 | 13 | 8 | 72% | 76.15 | 0.0 | |||||||
| 05 | 01:55 | W 9 | 14.48 | Overcast | FEW047 BKN065 OVC075 | 13 | 7 | 67% | 76.17 | 0.0 | |||||||
| 05 | 01:35 | W 6 | 16.09 | Mostly Cloudy | FEW026 SCT039 BKN065 | 13 | 7 | 67% | 76.2 | 0.0 | |||||||
| 05 | 01:15 | Vrbl 11 | 16.09 | Overcast | SCT035 BKN047 OVC070 | 13 | 7 | 67% | 76.2 | 0.0 | |||||||
| 05 | 00:55 | Vrbl 9 | 16.09 | Overcast | BKN034 OVC048 | 13 | 7 | 67% | 76.23 | 0.0 | |||||||
| 05 | 00:35 | NW 13 | 16.09 | Overcast | BKN035 BKN048 OVC090 | 13 | 7 | 67% | 76.2 | 0.0 | |||||||
| 05 | 00:15 | NW 13 G 22 | 16.09 | Overcast | BKN036 BKN047 OVC100 | 13 | 7 | 67% | 76.2 | 0.0 | |||||||
| 04 | 23:55 | NW 9 | 16.09 | Overcast | FEW047 OVC100 | 13 | 8 | 72% | 76.17 | 0.0 | |||||||
| 04 | 23:35 | NW 9 | 16.09 | Overcast | FEW030 OVC110 | 13 | 8 | 72% | 76.17 | 0.0 | |||||||
| 04 | 23:15 | NW 9 | 14.48 | Overcast | BKN029 BKN040 OVC120 | 13 | 8 | 72% | 76.17 | 0.0 | |||||||
| 04 | 22:55 | NW 11 | 14.48 | Mostly Cloudy | BKN031 BKN043 | 13 | 9 | 77% | 76.17 | 0.0 | |||||||
| 04 | 22:35 | W 13 | 14.48 | Overcast | FEW030 OVC043 | 14 | 9 | 72% | 76.17 | 0.0 | |||||||
| 04 | 22:15 | NW 15 G 24 | 14.48 | Overcast | OVC044 | 14 | 10 | 77% | 76.2 | 0.0 | |||||||
| 04 | 21:55 | NW 9 | 16.09 | Overcast | BKN042 OVC120 | 14 | 9 | 72% | 76.2 | 0.0 | |||||||
| 04 | 21:35 | NW 11 | 16.09 | Overcast | BKN043 OVC050 | 14 | 9 | 72% | 76.17 | 0.0 | |||||||
| 04 | 21:15 | NW 9 | 14.48 | Overcast | OVC044 | 14 | 9 | 72% | 76.17 | 0.0 | |||||||
| 04 | 20:55 | NW 11 | 16.09 | Overcast | OVC044 | 14 | 9 | 72% | 76.15 | 0.0 | |||||||
| 04 | 20:35 | NW 11 | 16.09 | Overcast | BKN043 OVC060 | 15 | 9 | 68% | 76.15 | 0.0 | |||||||
| 04 | 20:15 | NW 11 | 16.09 | Overcast | OVC060 | 15 | 9 | 68% | 76.12 | 0.0 | |||||||
| 04 | 19:55 | NW 9 | 14.48 | Overcast | OVC055 | 15 | 9 | 68% | 76.12 | 0.0 | |||||||
| 04 | 19:35 | NW 13 | 14.48 | Overcast | OVC050 | 15 | 8 | 63% | 76.1 | 0.0 | |||||||
| 04 | 19:15 | NW 15 | 14.48 | Overcast | SCT046 OVC055 | 16 | 8 | 59% | 76.1 | 0.0 | |||||||
| 04 | 18:55 | N 17 | 16.09 | Mostly Cloudy | FEW038 BKN045 BKN065 | 16 | 7 | 55% | 76.1 | 0.0 | |||||||
| 04 | 18:35 | NW 17 | 14.48 | Mostly Cloudy | SCT049 BKN060 | 16 | 7 | 55% | 76.1 | 0.0 | |||||||
| 04 | 18:15 | NW 15 | 14.48 | Overcast | BKN047 BKN055 OVC060 | 17 | 6 | 49% | 76.12 | 0.0 | |||||||
| 04 | 17:55 | NW 15 | 14.48 | Overcast | BKN047 OVC055 | 17 | 7 | 52% | 76.12 | 0.0 | |||||||
| 04 | 17:35 | NW 15 | 14.48 | Overcast | SCT037 BKN045 OVC050 | 17 | 7 | 52% | 76.12 | 0.0 | |||||||
| 04 | 17:15 | NW 13 | 14.48 | Overcast | BKN036 OVC046 | 17 | 8 | 56% | 76.12 | 0.0 | |||||||
| 04 | 16:55 | W 17 | 14.48 | Overcast | SCT036 OVC045 | 17 | 8 | 56% | 76.12 | 0.0 | |||||||
| 04 | 16:35 | W 15 G 26 | 14.48 | Mostly Cloudy | BKN036 BKN044 BKN055 | 17 | 9 | 60% | 76.12 | 0.0 | |||||||
| 04 | 16:15 | W 15 G 24 | 14.48 | Mostly Cloudy | SCT045 BKN060 BKN070 | 17 | 8 | 56% | 76.12 | 0.0 | |||||||
| 04 | 15:55 | W 15 G 26 | 14.48 | Overcast | SCT047 BKN055 OVC070 | 17 | 8 | 56% | 76.12 | 0.0 | |||||||
| 04 | 15:35 | W 19 | 14.48 | Overcast | BKN050 OVC060 | 17 | 8 | 56% | 76.12 | 0.0 | |||||||
| 04 | 15:15 | W 19 | 14.48 | Overcast | SCT045 OVC060 | 17 | 9 | 60% | 76.12 | 0.0 | |||||||
| 04 | 14:55 | Vrbl 9 G 24 | 14.48 | Mostly Cloudy | BKN043 BKN049 BKN070 | 18 | 8 | 52% | 76.15 | 0.0 | |||||||
| 04 | 14:35 | W 11 G 24 | 14.48 | Partly Cloudy | FEW039 SCT070 | 18 | 8 | 52% | 76.15 | 0.0 | |||||||
| 04 | 14:15 | W 17 | 14.48 | Mostly Cloudy | SCT038 SCT044 BKN070 | 19 | 8 | 49% | 76.15 | 0.0 | |||||||
| 04 | 13:55 | W 11 G 22 | 14.48 | Mostly Cloudy | SCT037 BKN070 | 19 | 8 | 49% | 76.15 | 0.0 | |||||||
| 04 | 13:35 | W 19 | 14.48 | Overcast | OVC065 | 18 | 8 | 52% | 76.15 | 0.0 | |||||||
| 04 | 13:15 | W 15 | 14.48 | Overcast | BKN060 OVC065 | 17 | 9 | 60% | 76.15 | 0.0 | |||||||
| 04 | 12:55 | Vrbl 9 G 20 | 14.48 | Mostly Cloudy | FEW043 SCT048 BKN055 | 17 | 9 | 60% | 76.17 | 0.0 | |||||||
| 04 | 12:35 | NW 11 G 22 | 14.48 | Mostly Cloudy | BKN040 BKN050 | 17 | 9 | 60% | 76.17 | 0.0 | |||||||
| 04 | 12:15 | N 17 | 14.48 | Overcast | BKN041 OVC047 | 17 | 9 | 60% | 76.17 | 0.0 | |||||||
| 04 | 11:55 | N 11 | 14.48 | Overcast | BKN043 OVC065 | 17 | 8 | 56% | 76.17 | 0.0 | |||||||
| 04 | 11:35 | N 15 | 16.09 | Overcast | BKN041 OVC060 | 17 | 9 | 60% | 76.17 | 0.0 | |||||||
| 04 | 11:15 | N 13 | 14.48 | Overcast | SCT039 BKN045 OVC055 | 16 | 8 | 59% | 76.17 | 0.0 | |||||||
| 04 | 10:55 | N 13 | 14.48 | Mostly Cloudy | BKN044 BKN050 | 16 | 8 | 59% | 76.17 | 0.0 | |||||||
| 04 | 10:35 | Vrbl 11 | 14.48 | Mostly Cloudy | BKN048 | 17 | 8 | 56% | 76.15 | 0.0 | |||||||
| 04 | 10:15 | Calm | 14.48 | A Few Clouds | FEW050 | 17 | 8 | 56% | 76.15 | 0.0 | |||||||
| 04 | 09:55 | Vrbl 7 | 14.48 | Fair | CLR | 16 | 9 | 63% | 76.15 | 0.0 | |||||||
| 04 | 09:35 | NE 7 | 14.48 | Fair | CLR | 16 | 8 | 59% | 76.15 | 0.0 | |||||||
| 04 | 09:15 | Calm | 14.48 | Fair | CLR | 15 | 8 | 63% | 76.15 | 0.0 | |||||||
| 04 | 08:55 | Calm | 14.48 | Partly Cloudy | FEW027 SCT034 | 15 | 8 | 63% | 76.17 | 0.0 | |||||||
| 04 | 08:35 | Calm | 14.48 | Mostly Cloudy | SCT027 SCT035 BKN050 | 14 | 8 | 67% | 76.17 | 0.0 | |||||||
| 04 | 08:15 | SE 7 | 14.48 | Fair | CLR | 14 | 8 | 67% | 76.17 | 0.0 | |||||||
| 04 | 07:55 | SE 7 | 14.48 | Fair | CLR | 13 | 8 | 72% | 76.17 | 0.0 | |||||||
| 04 | 07:35 | Calm | 16.09 | A Few Clouds | FEW034 | 12 | 8 | 77% | 76.17 | 0.0 | |||||||
| 04 | 07:15 | Calm | 14.48 | A Few Clouds | FEW034 | 12 | 8 | 77% | 76.15 | 0.0 | |||||||
| 04 | 06:55 | Calm | 14.48 | Fair | CLR | 11 | 8 | 82% | 76.15 | 0.0 | |||||||
| 04 | 06:35 | Calm | 14.48 | Fair | CLR | 10 | 8 | 88% | 76.15 | 0.0 | |||||||
| 04 | 06:15 | S 6 | 14.48 | Fair | CLR | 11 | 7 | 77% | 76.12 | 0.0 | |||||||
| 04 | 05:55 | S 7 | 14.48 | Partly Cloudy | SCT065 | 11 | 7 | 77% | 76.12 | 0.0 | |||||||
| 04 | 05:35 | SE 11 | 14.48 | Mostly Cloudy | FEW034 BKN065 | 10 | 7 | 82% | 9 | 76.1 | 0.0 | ||||||
| 04 | 05:15 | SE 9 | 14.48 | Mostly Cloudy | BKN034 BKN065 | 11 | 7 | 77% | 76.12 | 0.0 | |||||||
| Date | Time (pdt) | Wind (kph) | Vis. (km) | Weather | Sky Cond. | Air | Dwpt | Max. | Min. | Relative Humidity | Wind Chill (°C) | Heat Index (°C) | altimeter (cm) | sea level (mb) | 1 hr | 3 hr | 6 hr |
| 6 hour | |||||||||||||||||
| Temperature (ºC) | Pressure | Precipitation (cm) | |||||||||||||||